Time,TemperatureF,DewpointF,PressureIn,WindDirection,WindDirectionDegrees,WindSpeedMPH,WindSpeedGustMPH,Humidity,HourlyPrecipIn,Conditions,Clouds,dailyrainin,SoftwareType,DateUTC
2013-07-15 00:02:00,74.5,59.7,30.06,North,-999,-999.0,-999.0,60,-99.99,,,-99.99,meteohub,2013-07-15 05:02:00,
2013-07-15 11:05:00,87.3,65.1,30.13,North,-999,-999.0,-999.0,48,-99.99,,,-99.99,meteohub,2013-07-15 16:05:00,
2013-07-15 11:11:00,87.4,66.6,30.13,North,-999,-999.0,-999.0,50,-99.99,,,-99.99,meteohub,2013-07-15 16:11:00,
2013-07-15 11:17:00,87.1,66.7,30.12,North,-999,-999.0,-999.0,51,-99.99,,,-99.99,meteohub,2013-07-15 16:17:00,
2013-07-15 11:22:00,86.4,66.7,30.12,North,-999,-999.0,-999.0,52,-99.99,,,-99.99,meteohub,2013-07-15 16:22:00,
2013-07-15 11:27:00,86.0,66.4,30.12,North,-999,-999.0,-999.0,52,-99.99,,,-99.99,meteohub,2013-07-15 16:27:00,
2013-07-15 11:32:00,87.3,66.9,30.12,North,-999,-999.0,-999.0,51,-99.99,,,-99.99,meteohub,2013-07-15 16:32:00,
2013-07-15 11:37:00,87.4,66.6,30.12,North,-999,-999.0,-999.0,50,-99.99,,,-99.99,meteohub,2013-07-15 16:37:00,
2013-07-15 11:42:00,87.8,66.9,30.12,North,-999,-999.0,-999.0,50,-99.99,,,-99.99,meteohub,2013-07-15 16:42:00,
2013-07-15 11:47:00,88.3,64.9,30.12,North,-999,-999.0,-999.0,46,-99.99,,,-99.99,meteohub,2013-07-15 16:47:00,
2013-07-15 11:52:00,88.3,66.7,30.12,North,-999,-999.0,-999.0,49,-99.99,,,-99.99,meteohub,2013-07-15 16:52:00,
2013-07-15 11:57:00,87.3,66.4,30.12,North,-999,-999.0,-999.0,50,-99.99,,,-99.99,meteohub,2013-07-15 16:57:00,
2013-07-15 12:03:00,88.0,65.8,30.12,North,-999,-999.0,-999.0,48,-99.99,,,-99.99,meteohub,2013-07-15 17:03:00,
2013-07-15 12:09:00,88.3,64.9,30.12,North,-999,-999.0,-999.0,46,-99.99,,,-99.99,meteohub,2013-07-15 17:09:00,
2013-07-15 12:15:00,88.7,66.6,30.11,North,-999,-999.0,-999.0,48,-99.99,,,-99.99,meteohub,2013-07-15 17:15:00,
2013-07-15 12:21:00,88.7,63.3,30.11,North,-999,-999.0,-999.0,43,-99.99,,,-99.99,meteohub,2013-07-15 17:21:00,
2013-07-15 12:27:00,88.7,62.6,30.11,North,-999,-999.0,-999.0,42,-99.99,,,-99.99,meteohub,2013-07-15 17:27:00,
2013-07-15 12:32:00,89.2,64.4,30.11,North,-999,-999.0,-999.0,44,-99.99,,,-99.99,meteohub,2013-07-15 17:32:00,
2013-07-15 12:37:00,89.6,64.2,30.10,North,-999,-999.0,-999.0,43,-99.99,,,-99.99,meteohub,2013-07-15 17:37:00,
2013-07-15 12:42:00,87.8,65.1,30.10,North,-999,-999.0,-999.0,47,-99.99,,,-99.99,meteohub,2013-07-15 17:42:00,
2013-07-15 12:47:00,86.9,65.5,30.11,North,-999,-999.0,-999.0,49,-99.99,,,-99.99,meteohub,2013-07-15 17:47:00,
2013-07-15 12:52:00,86.2,65.3,30.11,North,-999,-999.0,-999.0,50,-99.99,,,-99.99,meteohub,2013-07-15 17:52:00,
2013-07-15 12:57:00,87.1,64.9,30.10,North,-999,-999.0,-999.0,48,-99.99,,,-99.99,meteohub,2013-07-15 17:57:00,
2013-07-15 13:02:00,87.6,65.5,30.11,North,-999,-999.0,-999.0,48,-99.99,,,-99.99,meteohub,2013-07-15 18:02:00,
2013-07-15 13:07:00,89.1,65.7,30.10,North,-999,-999.0,-999.0,46,-99.99,,,-99.99,meteohub,2013-07-15 18:07:00,
2013-07-15 13:13:00,89.1,64.9,30.11,North,-999,-999.0,-999.0,45,-99.99,,,-99.99,meteohub,2013-07-15 18:13:00,
2013-07-15 13:19:00,88.2,64.8,30.11,North,-999,-999.0,-999.0,46,-99.99,,,-99.99,meteohub,2013-07-15 18:19:00,
2013-07-15 13:25:00,87.4,65.8,30.11,North,-999,-999.0,-999.0,49,-99.99,,,-99.99,meteohub,2013-07-15 18:25:00,
2013-07-15 13:32:00,88.0,65.3,30.11,North,-999,-999.0,-999.0,47,-99.99,,,-99.99,meteohub,2013-07-15 18:32:00,
2013-07-15 13:37:00,87.6,66.7,30.11,North,-999,-999.0,-999.0,50,-99.99,,,-99.99,meteohub,2013-07-15 18:37:00,
2013-07-15 13:42:00,88.9,67.3,30.10,North,-999,-999.0,-999.0,49,-99.99,,,-99.99,meteohub,2013-07-15 18:42:00,
2013-07-15 13:47:00,89.4,66.6,30.10,North,-999,-999.0,-999.0,47,-99.99,,,-99.99,meteohub,2013-07-15 18:47:00,
2013-07-15 13:54:00,88.9,66.6,30.09,North,-999,-999.0,-999.0,48,-99.99,,,-99.99,meteohub,2013-07-15 18:54:00,
2013-07-15 14:00:00,89.4,65.3,30.09,North,-999,-999.0,-999.0,45,-99.99,,,-99.99,meteohub,2013-07-15 19:00:00,
2013-07-15 14:06:00,89.6,66.0,30.09,North,-999,-999.0,-999.0,46,-99.99,,,-99.99,meteohub,2013-07-15 19:06:00,
2013-07-15 14:12:00,90.0,65.1,30.09,North,-999,-999.0,-999.0,44,-99.99,,,-99.99,meteohub,2013-07-15 19:12:00,
2013-07-15 14:17:00,88.9,64.8,30.09,North,-999,-999.0,-999.0,45,-99.99,,,-99.99,meteohub,2013-07-15 19:17:00,
2013-07-15 14:24:00,90.0,64.4,30.09,North,-999,-999.0,-999.0,43,-99.99,,,-99.99,meteohub,2013-07-15 19:24:00,
2013-07-15 14:30:00,89.4,64.6,30.09,North,-999,-999.0,-999.0,44,-99.99,,,-99.99,meteohub,2013-07-15 19:30:00,
2013-07-15 14:36:00,88.2,66.6,30.09,North,-999,-999.0,-999.0,49,-99.99,,,-99.99,meteohub,2013-07-15 19:36:00,
2013-07-15 14:42:00,90.1,65.3,30.09,North,-999,-999.0,-999.0,44,-99.99,,,-99.99,meteohub,2013-07-15 19:42:00,
2013-07-15 14:47:00,89.1,66.2,30.08,North,-999,-999.0,-999.0,47,-99.99,,,-99.99,meteohub,2013-07-15 19:47:00,
2013-07-15 14:52:00,88.9,66.6,30.09,North,-999,-999.0,-999.0,48,-99.99,,,-99.99,meteohub,2013-07-15 19:52:00,
2013-07-15 14:57:00,88.7,65.3,30.09,North,-999,-999.0,-999.0,46,-99.99,,,-99.99,meteohub,2013-07-15 19:57:00,
2013-07-15 15:03:00,89.4,65.8,30.08,North,-999,-999.0,-999.0,46,-99.99,,,-99.99,meteohub,2013-07-15 20:03:00,
2013-07-15 15:09:00,90.5,64.2,30.08,North,-999,-999.0,-999.0,42,-99.99,,,-99.99,meteohub,2013-07-15 20:09:00,
2013-07-15 15:15:00,92.3,65.8,30.07,North,-999,-999.0,-999.0,42,-99.99,,,-99.99,meteohub,2013-07-15 20:15:00,
2013-07-15 15:21:00,91.2,65.7,30.08,North,-999,-999.0,-999.0,43,-99.99,,,-99.99,meteohub,2013-07-15 20:21:00,
2013-07-15 15:27:00,91.2,66.2,30.08,North,-999,-999.0,-999.0,44,-99.99,,,-99.99,meteohub,2013-07-15 20:27:00,
2013-07-15 15:32:00,91.4,64.4,30.07,North,-999,-999.0,-999.0,41,-99.99,,,-99.99,meteohub,2013-07-15 20:32:00,
2013-07-15 15:37:00,91.6,64.6,30.08,North,-999,-999.0,-999.0,41,-99.99,,,-99.99,meteohub,2013-07-15 20:37:00,
2013-07-15 15:42:00,91.6,63.9,30.08,North,-999,-999.0,-999.0,40,-99.99,,,-99.99,meteohub,2013-07-15 20:42:00,
2013-07-15 15:50:00,92.1,65.7,30.07,North,-999,-999.0,-999.0,42,-99.99,,,-99.99,meteohub,2013-07-15 20:50:00,
2013-07-15 15:56:00,90.7,65.1,30.07,North,-999,-999.0,-999.0,43,-99.99,,,-99.99,meteohub,2013-07-15 20:56:00,
2013-07-15 16:02:00,92.5,63.9,30.07,North,-999,-999.0,-999.0,39,-99.99,,,-99.99,meteohub,2013-07-15 21:02:00,
2013-07-15 16:07:00,92.7,62.6,30.07,North,-999,-999.0,-999.0,37,-99.99,,,-99.99,meteohub,2013-07-15 21:07:00,
2013-07-15 16:14:00,92.5,62.4,30.07,North,-999,-999.0,-999.0,37,-99.99,,,-99.99,meteohub,2013-07-15 21:14:00,
2013-07-15 16:20:00,92.7,62.6,30.06,North,-999,-999.0,-999.0,37,-99.99,,,-99.99,meteohub,2013-07-15 21:20:00,
2013-07-15 16:26:00,91.0,62.6,30.06,North,-999,-999.0,-999.0,39,-99.99,,,-99.99,meteohub,2013-07-15 21:26:00,
2013-07-15 16:32:00,91.6,63.1,30.06,North,-999,-999.0,-999.0,39,-99.99,,,-99.99,meteohub,2013-07-15 21:32:00,
2013-07-15 16:38:00,91.6,62.4,30.06,North,-999,-999.0,-999.0,38,-99.99,,,-99.99,meteohub,2013-07-15 21:38:00,
2013-07-15 16:45:00,91.8,63.3,30.06,North,-999,-999.0,-999.0,39,-99.99,,,-99.99,meteohub,2013-07-15 21:45:00,
2013-07-15 16:51:00,90.5,64.2,30.06,North,-999,-999.0,-999.0,42,-99.99,,,-99.99,meteohub,2013-07-15 21:51:00,
2013-07-15 16:57:00,92.1,61.3,30.06,North,-999,-999.0,-999.0,36,-99.99,,,-99.99,meteohub,2013-07-15 21:57:00,
2013-07-15 17:02:00,92.8,62.8,30.06,North,-999,-999.0,-999.0,37,-99.99,,,-99.99,meteohub,2013-07-15 22:02:00,
2013-07-15 17:07:00,92.7,64.0,30.06,North,-999,-999.0,-999.0,39,-99.99,,,-99.99,meteohub,2013-07-15 22:07:00,
2013-07-15 17:13:00,93.4,60.8,30.06,North,-999,-999.0,-999.0,34,-99.99,,,-99.99,meteohub,2013-07-15 22:13:00,
2013-07-15 17:19:00,93.2,63.1,30.06,North,-999,-999.0,-999.0,37,-99.99,,,-99.99,meteohub,2013-07-15 22:19:00,
2013-07-15 17:26:00,92.7,62.6,30.06,North,-999,-999.0,-999.0,37,-99.99,,,-99.99,meteohub,2013-07-15 22:26:00,
2013-07-15 17:32:00,92.5,63.9,30.05,North,-999,-999.0,-999.0,39,-99.99,,,-99.99,meteohub,2013-07-15 22:32:00,
2013-07-15 17:37:00,92.3,62.2,30.05,North,-999,-999.0,-999.0,37,-99.99,,,-99.99,meteohub,2013-07-15 22:37:00,
2013-07-15 17:42:00,92.7,61.9,30.05,North,-999,-999.0,-999.0,36,-99.99,,,-99.99,meteohub,2013-07-15 22:42:00,
2013-07-15 17:47:00,92.5,62.4,30.05,North,-999,-999.0,-999.0,37,-99.99,,,-99.99,meteohub,2013-07-15 22:47:00,
2013-07-15 17:52:00,90.7,61.5,30.05,North,-999,-999.0,-999.0,38,-99.99,,,-99.99,meteohub,2013-07-15 22:52:00,
2013-07-15 17:57:00,91.6,61.7,30.05,North,-999,-999.0,-999.0,37,-99.99,,,-99.99,meteohub,2013-07-15 22:57:00,
2013-07-15 18:04:00,92.3,62.2,30.05,North,-999,-999.0,-999.0,37,-99.99,,,-99.99,meteohub,2013-07-15 23:04:00,
2013-07-15 18:10:00,91.9,62.8,30.05,North,-999,-999.0,-999.0,38,-99.99,,,-99.99,meteohub,2013-07-15 23:10:00,
2013-07-15 18:16:00,91.4,63.0,30.05,North,-999,-999.0,-999.0,39,-99.99,,,-99.99,meteohub,2013-07-15 23:16:00,
2013-07-15 18:22:00,89.4,62.6,30.05,North,-999,-999.0,-999.0,41,-99.99,,,-99.99,meteohub,2013-07-15 23:22:00,
2013-07-15 18:27:00,90.0,62.4,30.04,North,-999,-999.0,-999.0,40,-99.99,,,-99.99,meteohub,2013-07-15 23:27:00,
2013-07-15 18:32:00,91.2,62.8,30.05,North,-999,-999.0,-999.0,39,-99.99,,,-99.99,meteohub,2013-07-15 23:32:00,
2013-07-15 18:37:00,91.0,62.6,30.04,North,-999,-999.0,-999.0,39,-99.99,,,-99.99,meteohub,2013-07-15 23:37:00,
2013-07-15 18:42:00,90.7,63.0,30.04,North,-999,-999.0,-999.0,40,-99.99,,,-99.99,meteohub,2013-07-15 23:42:00,
2013-07-15 18:47:00,90.5,63.5,30.05,North,-999,-999.0,-999.0,41,-99.99,,,-99.99,meteohub,2013-07-15 23:47:00,
2013-07-15 18:52:00,90.5,63.0,30.05,North,-999,-999.0,-999.0,40,-99.99,,,-99.99,meteohub,2013-07-15 23:52:00,
2013-07-15 18:57:00,90.5,63.0,30.05,North,-999,-999.0,-999.0,40,-99.99,,,-99.99,meteohub,2013-07-15 23:57:00,
2013-07-15 19:03:00,90.1,63.3,30.05,North,-999,-999.0,-999.0,41,-99.99,,,-99.99,meteohub,2013-07-16 00:03:00,
2013-07-15 19:09:00,89.1,63.0,30.05,North,-999,-999.0,-999.0,42,-99.99,,,-99.99,meteohub,2013-07-16 00:09:00,
2013-07-15 19:15:00,88.0,63.3,30.06,North,-999,-999.0,-999.0,44,-99.99,,,-99.99,meteohub,2013-07-16 00:15:00,
2013-07-15 19:21:00,87.1,63.1,30.05,North,-999,-999.0,-999.0,45,-99.99,,,-99.99,meteohub,2013-07-16 00:21:00,
2013-07-15 19:27:00,86.9,63.7,30.06,North,-999,-999.0,-999.0,46,-99.99,,,-99.99,meteohub,2013-07-16 00:27:00,
2013-07-15 19:32:00,86.7,64.0,30.06,North,-999,-999.0,-999.0,47,-99.99,,,-99.99,meteohub,2013-07-16 00:32:00,
2013-07-15 19:37:00,86.5,64.6,30.06,North,-999,-999.0,-999.0,48,-99.99,,,-99.99,meteohub,2013-07-16 00:37:00,
2013-07-15 19:42:00,86.4,64.9,30.06,North,-999,-999.0,-999.0,49,-99.99,,,-99.99,meteohub,2013-07-16 00:42:00,
2013-07-15 19:47:00,86.2,64.8,30.06,North,-999,-999.0,-999.0,49,-99.99,,,-99.99,meteohub,2013-07-16 00:47:00,
2013-07-15 19:55:00,86.0,65.1,30.06,North,-999,-999.0,-999.0,50,-99.99,,,-99.99,meteohub,2013-07-16 00:55:00,
2013-07-15 20:01:00,85.5,64.8,30.07,North,-999,-999.0,-999.0,50,-99.99,,,-99.99,meteohub,2013-07-16 01:01:00,
2013-07-15 20:07:00,85.3,65.1,30.08,North,-999,-999.0,-999.0,51,-99.99,,,-99.99,meteohub,2013-07-16 01:07:00,
2013-07-15 20:12:00,84.9,65.3,30.08,North,-999,-999.0,-999.0,52,-99.99,,,-99.99,meteohub,2013-07-16 01:12:00,
2013-07-15 20:17:00,84.6,64.9,30.07,North,-999,-999.0,-999.0,52,-99.99,,,-99.99,meteohub,2013-07-16 01:17:00,
2013-07-15 20:22:00,84.2,65.3,30.07,North,-999,-999.0,-999.0,53,-99.99,,,-99.99,meteohub,2013-07-16 01:22:00,
2013-07-15 20:29:00,84.0,65.1,30.07,North,-999,-999.0,-999.0,53,-99.99,,,-99.99,meteohub,2013-07-16 01:29:00,
2013-07-15 20:35:00,83.1,64.8,30.07,North,-999,-999.0,-999.0,54,-99.99,,,-99.99,meteohub,2013-07-16 01:35:00,
2013-07-15 20:41:00,82.9,65.1,30.08,North,-999,-999.0,-999.0,55,-99.99,,,-99.99,meteohub,2013-07-16 01:41:00,
2013-07-15 20:47:00,82.8,64.9,30.08,North,-999,-999.0,-999.0,55,-99.99,,,-99.99,meteohub,2013-07-16 01:47:00,
2013-07-15 20:52:00,82.4,65.1,30.09,North,-999,-999.0,-999.0,56,-99.99,,,-99.99,meteohub,2013-07-16 01:52:00,
2013-07-15 20:57:00,82.2,65.5,30.09,North,-999,-999.0,-999.0,57,-99.99,,,-99.99,meteohub,2013-07-16 01:57:00,
2013-07-15 21:02:00,81.9,65.1,30.09,North,-999,-999.0,-999.0,57,-99.99,,,-99.99,meteohub,2013-07-16 02:02:00,
2013-07-15 21:07:00,81.5,65.3,30.09,North,-999,-999.0,-999.0,58,-99.99,,,-99.99,meteohub,2013-07-16 02:07:00,
2013-07-15 21:12:00,81.5,65.8,30.09,North,-999,-999.0,-999.0,59,-99.99,,,-99.99,meteohub,2013-07-16 02:12:00,
2013-07-15 21:17:00,81.3,65.7,30.09,North,-999,-999.0,-999.0,59,-99.99,,,-99.99,meteohub,2013-07-16 02:17:00,
2013-07-15 21:22:00,81.1,65.5,30.09,North,-999,-999.0,-999.0,59,-99.99,,,-99.99,meteohub,2013-07-16 02:22:00,
2013-07-15 21:27:00,81.1,65.5,30.10,North,-999,-999.0,-999.0,59,-99.99,,,-99.99,meteohub,2013-07-16 02:27:00,
2013-07-15 21:33:00,81.1,66.4,30.10,North,-999,-999.0,-999.0,61,-99.99,,,-99.99,meteohub,2013-07-16 02:33:00,
2013-07-15 21:39:00,80.8,65.7,30.11,North,-999,-999.0,-999.0,60,-99.99,,,-99.99,meteohub,2013-07-16 02:39:00,
2013-07-15 21:45:00,80.2,66.0,30.11,North,-999,-999.0,-999.0,62,-99.99,,,-99.99,meteohub,2013-07-16 02:45:00,
2013-07-15 21:51:00,79.7,66.0,30.11,North,-999,-999.0,-999.0,63,-99.99,,,-99.99,meteohub,2013-07-16 02:51:00,
2013-07-15 21:57:00,79.3,66.0,30.12,North,-999,-999.0,-999.0,64,-99.99,,,-99.99,meteohub,2013-07-16 02:57:00,
2013-07-15 22:02:00,79.2,66.4,30.12,North,-999,-999.0,-999.0,65,-99.99,,,-99.99,meteohub,2013-07-16 03:02:00,
2013-07-15 22:07:00,78.8,66.6,30.12,North,-999,-999.0,-999.0,66,-99.99,,,-99.99,meteohub,2013-07-16 03:07:00,
2013-07-15 22:13:00,78.4,66.6,30.12,North,-999,-999.0,-999.0,67,-99.99,,,-99.99,meteohub,2013-07-16 03:13:00,
2013-07-15 22:20:00,78.3,66.4,30.12,North,-999,-999.0,-999.0,67,-99.99,,,-99.99,meteohub,2013-07-16 03:20:00,
2013-07-15 22:26:00,78.1,66.7,30.12,North,-999,-999.0,-999.0,68,-99.99,,,-99.99,meteohub,2013-07-16 03:26:00,
2013-07-15 22:32:00,77.9,66.6,30.12,North,-999,-999.0,-999.0,68,-99.99,,,-99.99,meteohub,2013-07-16 03:32:00,
2013-07-15 22:37:00,77.7,66.4,30.12,North,-999,-999.0,-999.0,68,-99.99,,,-99.99,meteohub,2013-07-16 03:37:00,
2013-07-15 22:42:00,77.2,66.2,30.12,North,-999,-999.0,-999.0,69,-99.99,,,-99.99,meteohub,2013-07-16 03:42:00,
2013-07-15 22:47:00,77.0,66.4,30.12,North,-999,-999.0,-999.0,70,-99.99,,,-99.99,meteohub,2013-07-16 03:47:00,
2013-07-15 22:52:00,76.5,66.4,30.12,North,-999,-999.0,-999.0,71,-99.99,,,-99.99,meteohub,2013-07-16 03:52:00,
2013-07-15 22:57:00,76.1,66.4,30.12,North,-999,-999.0,-999.0,72,-99.99,,,-99.99,meteohub,2013-07-16 03:57:00,
2013-07-15 23:02:00,75.4,66.2,30.12,North,-999,-999.0,-999.0,73,-99.99,,,-99.99,meteohub,2013-07-16 04:02:00,
2013-07-15 23:06:00,75.2,66.4,30.12,North,-999,-999.0,-999.0,74,-99.99,,,-99.99,meteohub,2013-07-16 04:06:00,
2013-07-15 23:07:00,75.2,66.4,30.12,North,-999,-999.0,-999.0,74,-99.99,,,-99.99,meteohub,2013-07-16 04:07:00,
2013-07-15 23:12:00,75.0,66.2,30.12,North,-999,-999.0,-999.0,74,-99.99,,,-99.99,meteohub,2013-07-16 04:12:00,
2013-07-15 23:18:00,74.5,65.7,30.12,North,-999,-999.0,-999.0,74,-99.99,,,-99.99,meteohub,2013-07-16 04:18:00,
2013-07-15 23:24:00,74.5,66.0,30.13,North,-999,-999.0,-999.0,75,-99.99,,,-99.99,meteohub,2013-07-16 04:24:00,
2013-07-15 23:30:00,74.3,66.2,30.12,North,-999,-999.0,-999.0,76,-99.99,,,-99.99,meteohub,2013-07-16 04:30:00,
2013-07-15 23:36:00,74.3,66.2,30.13,North,-999,-999.0,-999.0,76,-99.99,,,-99.99,meteohub,2013-07-16 04:36:00,
2013-07-15 23:42:00,74.3,66.6,30.13,North,-999,-999.0,-999.0,77,-99.99,,,-99.99,meteohub,2013-07-16 04:42:00,
2013-07-15 23:47:00,74.1,66.4,30.13,North,-999,-999.0,-999.0,77,-99.99,,,-99.99,meteohub,2013-07-16 04:47:00,
2013-07-15 23:52:00,74.3,66.9,30.13,North,-999,-999.0,-999.0,78,-99.99,,,-99.99,meteohub,2013-07-16 04:52:00,
2013-07-15 23:57:00,74.1,66.4,30.13,North,-999,-999.0,-999.0,77,-99.99,,,-99.99,meteohub,2013-07-16 04:57:00,